Red River Army Depot, Texas
Current Conditions -  °F | °C
As of 3:53 AM on Tuesday 21 Oct 2014 (Local Time) from KTXK Reporting Station
Clear Clear  
Wind Chill: 56°   Ceiling: Unl
Heat Index: 56°   Visibility: 10mi
Dew Point: 54°   Wind: 3mph
Humidity: 93%   Direction: 60°ENE
Pressure: 30.04"   Gusts: NA
Location:  33.3633°N, 94.2141°W
Report Text: KTXK 210853Z AUTO 06003KT 10SM CLR 13/12 A3004 RMK AO2 SLP169 T01330122 58001
Loading
Personal Weather Stations






























Interactive Weather Map New forecast layout! Learn more

10-Day Weather Forecast

Advertisements
Track Severe Weather on mobile